Time;durP1;ratioP1;P1;durP2;ratioP2;P2;SDS_P1;SDS_P2;PMS_P1;PMS_P2;Temp;Humidity;BMP_temperature;BMP_pressure;BME280_temperature;BME280_humidity;BME280_pressure;Samples;Min_cycle;Max_cycle;Signal;HPM_P1;HPM_P2
2023/06/27 00:01:39;;;;;;;3.40;2.10;;;;;;;;;;5063292;28;20088;-73
2023/06/27 00:04:08;;;;;;;4.05;2.20;;;;;;;;;;5063411;28;20024;-70
2023/06/27 00:06:40;;;;;;;4.25;2.22;;;;;;;;;;5063099;28;20025;-72
2023/06/27 00:09:06;;;;;;;5.88;2.45;;;;;;;;;;5063396;28;20083;-71
2023/06/27 00:11:31;;;;;;;3.17;2.00;;;;;;;;;;5063044;28;20096;-73
2023/06/27 00:13:58;;;;;;;6.68;2.58;;;;;;;;;;5063048;28;20032;-72
2023/06/27 00:16:24;;;;;;;4.53;2.22;;;;;;;;;;5062999;28;20037;-73
2023/06/27 00:18:50;;;;;;;5.35;2.67;;;;;;;;;;5063323;28;20029;-71
2023/06/27 00:21:16;;;;;;;6.80;2.22;;;;;;;;;;5062982;28;20070;-70
2023/06/27 00:23:47;;;;;;;6.63;2.70;;;;;;;;;;5062658;28;20043;-73
2023/06/27 00:26:15;;;;;;;;;;;;;;;;;;5063075;28;20048;-73
2023/06/27 00:28:40;;;;;;;4.53;2.30;;;;;;;;;;5063016;28;20293;-73
2023/06/27 00:31:06;;;;;;;4.90;2.13;;;;;;;;;;5062413;28;20051;-72
2023/06/27 00:33:31;;;;;;;8.52;2.30;;;;;;;;;;5062547;28;20060;-72
2023/06/27 00:35:57;;;;;;;4.65;2.03;;;;;;;;;;5062724;28;20052;-72
2023/06/27 00:38:22;;;;;;;3.83;2.08;;;;;;;;;;5062094;28;20048;-73
2023/06/27 00:40:48;;;;;;;4.10;2.30;;;;;;;;;;5062578;28;20021;-73
2023/06/27 00:43:13;;;;;;;4.25;2.55;;;;;;;;;;5062612;28;20056;-71
2023/06/27 00:45:39;;;;;;;5.15;2.35;;;;;;;;;;5062590;28;20098;-72
2023/06/27 00:48:04;;;;;;;5.40;2.08;;;;;;;;;;5062513;28;20059;-72
2023/06/27 00:50:30;;;;;;;4.80;2.42;;;;;;;;;;5062350;28;20041;-71
2023/06/27 00:52:58;;;;;;;3.60;2.15;;;;;;;;;;5062173;28;20092;-73
2023/06/27 00:55:23;;;;;;;3.88;2.17;;;;;;;;;;5062565;28;20348;-72
2023/06/27 00:57:50;;;;;;;3.30;2.28;;;;;;;;;;5062312;28;20032;-66
2023/06/27 01:00:15;;;;;;;5.05;2.60;;;;;;;;;;5062470;28;20460;-72
2023/06/27 01:02:41;;;;;;;5.10;3.00;;;;;;;;;;5062048;28;20033;-72
2023/06/27 01:05:07;;;;;;;5.55;2.78;;;;;;;;;;5062205;28;20124;-73
2023/06/27 01:08:00;;;;;;;6.85;2.80;;;;;;;;;;5061846;28;20048;-71
2023/06/27 01:10:52;;;;;;;4.18;2.50;;;;;;;;;;5059444;28;20090;-73
2023/06/27 01:13:27;;;;;;;6.97;2.55;;;;;;;;;;5062087;28;20114;-70
2023/06/27 01:15:53;;;;;;;5.63;2.88;;;;;;;;;;5062163;28;20044;-73
2023/06/27 01:18:21;;;;;;;4.88;2.70;;;;;;;;;;5062010;28;20025;-65
2023/06/27 01:20:49;;;;;;;5.32;2.45;;;;;;;;;;5061882;28;20048;-69
2023/06/27 01:23:21;;;;;;;4.50;2.53;;;;;;;;;;5061292;28;20029;-73
2023/06/27 01:25:49;;;;;;;5.22;2.65;;;;;;;;;;5061744;28;20043;-73
2023/06/27 01:28:14;;;;;;;4.88;2.25;;;;;;;;;;5061655;28;20025;-73
2023/06/27 01:30:41;;;;;;;5.78;2.67;;;;;;;;;;5061662;28;20225;-73
2023/06/27 01:33:13;;;;;;;8.35;2.83;;;;;;;;;;5061469;28;20037;-71
2023/06/27 01:36:04;;;;;;;5.30;2.50;;;;;;;;;;5061370;28;20063;-73
2023/06/27 01:38:48;;;;;;;5.13;2.53;;;;;;;;;;5061210;28;20093;-73
2023/06/27 01:41:18;;;;;;;4.20;2.33;;;;;;;;;;5061473;28;20020;-73
2023/06/27 01:43:44;;;;;;;3.83;2.40;;;;;;;;;;5061272;28;20067;-73
2023/06/27 01:46:11;;;;;;;3.83;2.08;;;;;;;;;;5061530;28;20362;-72
2023/06/27 01:48:38;;;;;;;4.15;2.22;;;;;;;;;;5061324;28;20033;-72
2023/06/27 01:51:07;;;;;;;4.30;2.15;;;;;;;;;;5061274;28;20028;-73
2023/06/27 01:53:33;;;;;;;5.72;2.63;;;;;;;;;;5060977;28;20029;-73
2023/06/27 01:55:58;;;;;;;5.07;2.42;;;;;;;;;;5061367;28;20036;-72
2023/06/27 01:58:24;;;;;;;6.93;2.35;;;;;;;;;;5061104;28;20051;-73
2023/06/27 02:00:49;;;;;;;5.20;2.75;;;;;;;;;;5061016;28;20029;-73
2023/06/27 02:03:15;;;;;;;5.38;2.30;;;;;;;;;;5060821;28;20039;-73
2023/06/27 02:05:41;;;;;;;5.22;2.38;;;;;;;;;;5061183;28;20031;-73
2023/06/27 02:08:06;;;;;;;3.33;2.03;;;;;;;;;;5060512;28;20025;-74
2023/06/27 02:10:31;;;;;;;3.42;1.98;;;;;;;;;;5061248;28;20021;-73
2023/06/27 02:12:59;;;;;;;4.90;2.45;;;;;;;;;;5060742;28;20155;-73
2023/06/27 02:15:24;;;;;;;3.97;2.10;;;;;;;;;;5061033;28;20035;-73
2023/06/27 02:17:49;;;;;;;3.83;2.08;;;;;;;;;;5060017;28;20044;-72
2023/06/27 02:20:15;;;;;;;5.28;1.92;;;;;;;;;;5060791;28;20330;-72
2023/06/27 02:22:40;;;;;;;4.43;1.80;;;;;;;;;;5059863;28;20032;-73
2023/06/27 02:25:06;;;;;;;2.88;1.90;;;;;;;;;;5060569;28;20028;-73
2023/06/27 02:27:31;;;;;;;3.15;1.92;;;;;;;;;;5060646;28;20138;-71
2023/06/27 02:29:56;;;;;;;3.80;2.03;;;;;;;;;;5060865;28;20036;-74
2023/06/27 02:32:22;;;;;;;6.35;2.45;;;;;;;;;;5059919;28;20072;-72
2023/06/27 02:34:47;;;;;;;3.80;1.90;;;;;;;;;;5060563;28;20029;-73
2023/06/27 02:37:13;;;;;;;5.28;1.90;;;;;;;;;;5060192;28;20303;-72
2023/06/27 02:39:38;;;;;;;3.75;2.08;;;;;;;;;;5060456;28;20256;-72
2023/06/27 02:42:04;;;;;;;4.75;1.77;;;;;;;;;;5060427;28;20044;-73
2023/06/27 02:44:29;;;;;;;3.53;1.60;;;;;;;;;;5060466;28;20399;-73
2023/06/27 02:46:55;;;;;;;2.72;1.55;;;;;;;;;;5059638;28;20221;-73
2023/06/27 02:49:23;;;;;;;3.80;1.75;;;;;;;;;;5060645;28;20056;-73
2023/06/27 02:51:49;;;;;;;4.15;1.88;;;;;;;;;;5059901;28;20105;-73
2023/06/27 02:54:15;;;;;;;3.15;1.60;;;;;;;;;;5060244;28;20044;-74
2023/06/27 02:56:40;;;;;;;3.70;1.77;;;;;;;;;;5060351;28;20255;-73
2023/06/27 02:59:06;;;;;;;5.95;2.10;;;;;;;;;;5060157;28;20033;-72
2023/06/27 03:01:31;;;;;;;3.25;2.00;;;;;;;;;;5060168;28;20035;-71
2023/06/27 03:03:56;;;;;;;2.53;1.40;;;;;;;;;;5060125;28;20324;-73
2023/06/27 03:06:22;;;;;;;3.58;1.90;;;;;;;;;;5060201;28;20313;-73
2023/06/27 03:08:49;;;;;;;3.38;2.08;;;;;;;;;;5059755;28;20025;-73
2023/06/27 03:11:14;;;;;;;3.38;1.77;;;;;;;;;;5059983;28;20020;-72
2023/06/27 03:13:40;;;;;;;3.03;1.70;;;;;;;;;;5060061;28;20032;-73
2023/06/27 03:16:05;;;;;;;3.85;1.92;;;;;;;;;;5059974;28;20028;-73
2023/06/27 03:18:31;;;;;;;2.97;1.90;;;;;;;;;;5060054;28;20092;-73
2023/06/27 03:20:56;;;;;;;3.83;1.90;;;;;;;;;;5060113;28;20028;-72
2023/06/27 03:23:24;;;;;;;4.47;1.80;;;;;;;;;;5059497;28;20059;-73
2023/06/27 03:25:50;;;;;;;4.70;1.98;;;;;;;;;;5060046;28;20116;-73
2023/06/27 03:28:15;;;;;;;3.63;1.88;;;;;;;;;;5058760;28;20527;-74
2023/06/27 03:30:43;;;;;;;4.93;1.42;;;;;;;;;;5059986;28;20028;-69
2023/06/27 03:33:09;;;;;;;3.42;1.63;;;;;;;;;;5059692;28;20037;-73
2023/06/27 03:35:35;;;;;;;4.05;1.95;;;;;;;;;;5060005;28;20029;-72
2023/06/27 03:38:00;;;;;;;3.65;1.85;;;;;;;;;;5059611;28;20029;-73
2023/06/27 03:40:26;;;;;;;3.78;1.70;;;;;;;;;;5060013;28;20217;-73
2023/06/27 03:42:51;;;;;;;2.92;1.38;;;;;;;;;;5059683;28;20021;-73
2023/06/27 03:45:16;;;;;;;2.55;1.55;;;;;;;;;;5059843;28;20040;-72
2023/06/27 03:47:42;;;;;;;3.35;1.50;;;;;;;;;;5059769;28;20426;-73
2023/06/27 03:50:07;;;;;;;3.97;1.55;;;;;;;;;;5059690;28;20028;-74
2023/06/27 03:52:33;;;;;;;2.30;1.30;;;;;;;;;;5059391;28;20035;-73
2023/06/27 03:54:58;;;;;;;2.42;1.30;;;;;;;;;;5059766;28;20115;-73
2023/06/27 03:57:26;;;;;;;2.95;1.40;;;;;;;;;;5059791;28;20100;-68
2023/06/27 03:59:51;;;;;;;5.00;1.75;;;;;;;;;;5062614;28;20035;-68
2023/06/27 04:02:16;;;;;;;2.17;1.40;;;;;;;;;;5063297;28;20255;-73
2023/06/27 04:04:42;;;;;;;2.75;1.33;;;;;;;;;;5063227;28;20063;-71
2023/06/27 04:07:07;;;;;;;3.90;1.80;;;;;;;;;;5063154;28;20051;-72
2023/06/27 04:09:33;;;;;;;4.00;1.50;;;;;;;;;;5063343;28;20028;-73
2023/06/27 04:12:01;;;;;;;4.68;1.80;;;;;;;;;;5063329;28;20294;-74
2023/06/27 04:14:27;;;;;;;2.72;1.73;;;;;;;;;;5063137;28;20099;-75
2023/06/27 04:16:53;;;;;;;3.80;1.70;;;;;;;;;;5063220;28;20025;-73
2023/06/27 04:19:19;;;;;;;4.68;1.40;;;;;;;;;;5063060;28;20092;-73
2023/06/27 04:21:44;;;;;;;5.53;1.60;;;;;;;;;;5062583;28;20241;-73
2023/06/27 04:24:09;;;;;;;2.25;1.30;;;;;;;;;;5062717;28;20025;-73
2023/06/27 04:26:35;;;;;;;2.78;1.50;;;;;;;;;;5062898;28;20021;-74
2023/06/27 04:29:00;;;;;;;5.45;1.85;;;;;;;;;;5063189;28;20032;-66
2023/06/27 04:31:26;;;;;;;2.05;1.40;;;;;;;;;;5062988;28;20029;-73
2023/06/27 04:33:55;;;;;;;4.43;1.50;;;;;;;;;;5062695;28;20029;-73
2023/06/27 04:36:24;;;;;;;3.10;1.38;;;;;;;;;;5062761;28;20071;-69
2023/06/27 04:38:50;;;;;;;3.90;1.40;;;;;;;;;;5062403;28;20111;-73
2023/06/27 04:41:15;;;;;;;3.40;1.48;;;;;;;;;;5062749;28;20127;-74
2023/06/27 04:43:41;;;;;;;3.67;1.60;;;;;;;;;;5062298;28;20078;-67
2023/06/27 04:46:06;;;;;;;5.43;1.50;;;;;;;;;;5062593;28;20021;-72
2023/06/27 04:48:31;;;;;;;3.25;1.63;;;;;;;;;;5062620;28;20029;-73
2023/06/27 04:51:00;;;;;;;3.72;1.52;;;;;;;;;;5062556;28;20317;-72
2023/06/27 04:53:25;;;;;;;5.00;1.98;;;;;;;;;;5062054;28;20320;-74
2023/06/27 04:55:53;;;;;;;3.90;1.88;;;;;;;;;;5062421;28;20070;-73
2023/06/27 04:58:19;;;;;;;3.20;1.50;;;;;;;;;;5061279;28;20040;-73
2023/06/27 05:00:47;;;;;;;2.75;1.20;;;;;;;;;;5062246;28;20095;-69
2023/06/27 05:03:15;;;;;;;7.55;1.90;;;;;;;;;;5062147;28;20055;-73
2023/06/27 05:05:41;;;;;;;3.55;1.55;;;;;;;;;;5062162;28;20388;-72
2023/06/27 05:08:07;;;;;;;2.75;1.55;;;;;;;;;;5062048;28;20047;-73
2023/06/27 05:10:33;;;;;;;3.67;1.48;;;;;;;;;;5061237;28;20071;-69
2023/06/27 05:13:02;;;;;;;1.92;1.35;;;;;;;;;;5062065;28;20079;-75
2023/06/27 05:15:27;;;;;;;3.78;1.38;;;;;;;;;;5061957;28;20032;-70
2023/06/27 05:18:14;;;;;;;3.58;2.05;;;;;;;;;;5062087;28;20032;-72
2023/06/27 05:20:48;;;;;;;3.28;1.95;;;;;;;;;;5061810;28;20025;-73
2023/06/27 05:23:14;;;;;;;1.83;1.20;;;;;;;;;;5061476;28;20229;-74
2023/06/27 05:25:40;;;;;;;3.10;1.70;;;;;;;;;;5061936;28;20032;-72
2023/06/27 05:28:06;;;;;;;3.50;1.45;;;;;;;;;;5061931;28;20325;-73
2023/06/27 05:30:32;;;;;;;2.13;1.25;;;;;;;;;;5062039;28;20028;-73
2023/06/27 05:32:58;;;;;;;4.07;1.30;;;;;;;;;;5061587;28;20454;-72
2023/06/27 05:35:24;;;;;;;7.43;1.80;;;;;;;;;;5061455;28;20040;-72
2023/06/27 05:37:49;;;;;;;2.78;1.60;;;;;;;;;;5061339;28;20032;-73
2023/06/27 05:40:15;;;;;;;2.40;1.30;;;;;;;;;;5061575;28;20049;-73
2023/06/27 05:42:40;;;;;;;2.50;1.48;;;;;;;;;;5060351;28;20309;-73
2023/06/27 05:45:06;;;;;;;2.90;1.40;;;;;;;;;;5061427;28;20067;-69
2023/06/27 05:47:32;;;;;;;2.25;1.27;;;;;;;;;;5061337;28;20052;-74
2023/06/27 05:49:57;;;;;;;2.85;1.35;;;;;;;;;;5061382;28;20033;-70
2023/06/27 05:52:23;;;;;;;2.65;1.35;;;;;;;;;;5060360;28;20035;-73
2023/06/27 05:54:49;;;;;;;1.88;1.35;;;;;;;;;;5061263;28;20036;-73
2023/06/27 05:57:15;;;;;;;3.85;1.77;;;;;;;;;;5061447;28;20029;-73
2023/06/27 05:59:40;;;;;;;7.03;1.80;;;;;;;;;;5060019;28;20031;-70
2023/06/27 06:02:06;;;;;;;2.03;1.20;;;;;;;;;;5061371;28;20336;-74
2023/06/27 06:04:34;;;;;;;2.78;1.58;;;;;;;;;;5060974;28;20320;-73
2023/06/27 06:07:00;;;;;;;2.58;1.60;;;;;;;;;;5060879;28;20064;-71
2023/06/27 06:09:25;;;;;;;3.38;1.40;;;;;;;;;;5061159;28;20036;-74
2023/06/27 06:11:51;;;;;;;2.90;1.40;;;;;;;;;;5060819;28;20116;-74
2023/06/27 06:14:16;;;;;;;2.15;1.52;;;;;;;;;;5061082;28;20490;-73
2023/06/27 06:16:42;;;;;;;2.75;1.45;;;;;;;;;;5060966;28;20028;-73
2023/06/27 06:19:08;;;;;;;2.05;1.50;;;;;;;;;;5061069;28;20519;-69
2023/06/27 06:21:33;;;;;;;4.13;1.45;;;;;;;;;;5060856;28;20092;-73
2023/06/27 06:23:59;;;;;;;1.98;1.15;;;;;;;;;;5060585;28;20045;-73
2023/06/27 06:26:24;;;;;;;2.88;1.30;;;;;;;;;;5060835;28;20057;-73
2023/06/27 06:28:50;;;;;;;5.28;1.30;;;;;;;;;;5060744;28;20021;-74
2023/06/27 06:31:16;;;;;;;2.20;1.30;;;;;;;;;;5053471;28;20021;-75
2023/06/27 06:33:45;;;;;;;3.55;1.30;;;;;;;;;;5054053;28;20033;-74
2023/06/27 06:36:12;;;;;;;4.32;1.40;;;;;;;;;;5043732;28;20235;-73
2023/06/27 06:38:38;;;;;;;2.45;1.42;;;;;;;;;;5042088;28;20026;-73
2023/06/27 06:41:06;;;;;;;2.78;1.40;;;;;;;;;;5060486;28;20048;-74
2023/06/27 06:43:32;;;;;;;1.63;1.05;;;;;;;;;;5060431;28;20032;-72
2023/06/27 06:45:58;;;;;;;3.28;1.30;;;;;;;;;;5060416;28;20036;-74
2023/06/27 06:48:23;;;;;;;1.60;1.27;;;;;;;;;;5048749;28;20244;-74
2023/06/27 06:50:53;;;;;;;2.90;1.38;;;;;;;;;;5040470;28;20036;-74
2023/06/27 06:53:19;;;;;;;7.97;1.50;;;;;;;;;;5040072;28;20017;-73
2023/06/27 06:55:45;;;;;;;2.83;1.15;;;;;;;;;;5040427;28;20025;-74
2023/06/27 06:58:10;;;;;;;3.75;1.02;;;;;;;;;;5040510;28;20079;-74
2023/06/27 07:00:36;;;;;;;3.22;1.52;;;;;;;;;;5039156;28;20092;-73
2023/06/27 07:03:03;;;;;;;2.47;1.08;;;;;;;;;;5031806;28;20112;-75
2023/06/27 07:05:29;;;;;;;1.33;0.98;;;;;;;;;;5051815;28;20056;-74
2023/06/27 07:07:54;;;;;;;3.42;1.27;;;;;;;;;;5050163;28;20381;-73
2023/06/27 07:10:20;;;;;;;2.42;1.20;;;;;;;;;;5048446;28;20055;-72
2023/06/27 07:12:45;;;;;;;1.70;1.00;;;;;;;;;;5051538;28;20102;-74
2023/06/27 07:15:10;;;;;;;5.43;1.38;;;;;;;;;;5051346;28;20100;-74
2023/06/27 07:17:36;;;;;;;2.85;1.17;;;;;;;;;;5055807;28;20059;-74
2023/06/27 07:20:04;;;;;;;2.33;1.42;;;;;;;;;;5054160;28;20029;-73
2023/06/27 07:22:29;;;;;;;3.75;1.38;;;;;;;;;;5051488;28;20025;-70
2023/06/27 07:24:54;;;;;;;1.55;1.00;;;;;;;;;;5051143;28;20109;-74
2023/06/27 07:27:20;;;;;;;4.15;1.50;;;;;;;;;;5054574;28;20029;-73
2023/06/27 07:29:45;;;;;;;1.30;0.90;;;;;;;;;;5053594;28;20028;-74
2023/06/27 07:32:11;;;;;;;1.98;1.00;;;;;;;;;;5041833;28;20045;-74
2023/06/27 07:34:39;;;;;;;2.05;1.55;;;;;;;;;;5039641;28;20352;-73
2023/06/27 07:37:05;;;;;;;1.40;0.90;;;;;;;;;;5038757;28;20071;-74
2023/06/27 07:39:31;;;;;;;2.30;1.20;;;;;;;;;;5046352;28;20029;-73
2023/06/27 07:41:56;;;;;;;1.45;0.88;;;;;;;;;;5061845;28;20048;-74
2023/06/27 07:44:21;;;;;;;2.63;1.00;;;;;;;;;;5060077;28;20036;-73
2023/06/27 07:46:47;;;;;;;5.13;1.42;;;;;;;;;;5063591;28;20055;-73
2023/06/27 07:49:12;;;;;;;5.55;1.42;;;;;;;;;;5063606;28;20049;-73
2023/06/27 07:51:38;;;;;;;1.67;1.15;;;;;;;;;;5063229;28;20347;-69
2023/06/27 07:54:03;;;;;;;1.50;0.98;;;;;;;;;;5063127;28;20024;-70
2023/06/27 07:56:29;;;;;;;1.75;0.82;;;;;;;;;;5062568;28;20059;-72
2023/06/27 07:58:54;;;;;;;1.60;1.10;;;;;;;;;;5061387;28;20315;-72
2023/06/27 08:01:20;;;;;;;1.52;1.10;;;;;;;;;;5063432;28;20025;-73
2023/06/27 08:03:46;;;;;;;2.42;1.00;;;;;;;;;;5062124;28;20033;-73
2023/06/27 08:06:11;;;;;;;3.05;1.30;;;;;;;;;;5063184;28;20033;-74
2023/06/27 08:08:36;;;;;;;2.50;1.00;;;;;;;;;;5059870;28;20373;-73
2023/06/27 08:11:03;;;;;;;4.95;1.15;;;;;;;;;;5062066;28;20317;-73
2023/06/27 08:13:28;;;;;;;3.30;1.13;;;;;;;;;;5056266;28;20033;-73
2023/06/27 08:15:54;;;;;;;1.20;1.00;;;;;;;;;;5051187;28;20021;-74
2023/06/27 08:18:19;;;;;;;4.47;1.05;;;;;;;;;;5052072;28;20032;-71
2023/06/27 08:20:44;;;;;;;1.48;0.90;;;;;;;;;;5051712;28;20021;-69
2023/06/27 08:23:10;;;;;;;1.80;1.10;;;;;;;;;;5052231;28;20483;-74
2023/06/27 08:25:36;;;;;;;3.78;1.30;;;;;;;;;;5057747;28;20104;-73
2023/06/27 08:28:01;;;;;;;8.20;1.20;;;;;;;;;;5056746;28;20092;-74
2023/06/27 08:30:27;;;;;;;5.00;0.90;;;;;;;;;;5052029;28;20025;-74
2023/06/27 08:32:54;;;;;;;1.15;0.80;;;;;;;;;;5051366;28;20049;-73
2023/06/27 08:35:20;;;;;;;1.92;0.85;;;;;;;;;;5059510;28;20028;-72
2023/06/27 08:37:46;;;;;;;3.85;0.93;;;;;;;;;;5050664;28;20052;-74
2023/06/27 08:40:23;;;;;;;3.92;1.17;;;;;;;;;;5053133;28;20025;-72
2023/06/27 08:42:48;;;;;;;3.63;1.23;;;;;;;;;;5050801;28;20072;-69
2023/06/27 08:45:14;;;;;;;1.13;0.90;;;;;;;;;;5048855;28;20056;-73
2023/06/27 08:47:43;;;;;;;2.17;0.90;;;;;;;;;;5050359;28;20469;-73
2023/06/27 08:50:13;;;;;;;2.88;1.20;;;;;;;;;;5049889;28;20400;-72
2023/06/27 08:52:43;;;;;;;2.40;1.10;;;;;;;;;;5053562;28;20515;-66
2023/06/27 08:55:25;;;;;;;4.35;1.25;;;;;;;;;;5054895;28;20021;-74
2023/06/27 08:57:53;;;;;;;3.45;1.55;;;;;;;;;;5053854;28;20028;-74
2023/06/27 09:00:22;;;;;;;2.35;1.17;;;;;;;;;;5054651;28;20082;-73
2023/06/27 09:02:48;;;;;;;1.17;0.80;;;;;;;;;;5064378;28;20025;-73
2023/06/27 09:05:15;;;;;;;4.18;1.40;;;;;;;;;;5066554;28;20025;-74
2023/06/27 09:07:41;;;;;;;2.75;1.05;;;;;;;;;;5057081;28;20059;-73
2023/06/27 09:10:08;;;;;;;1.92;1.20;;;;;;;;;;5061124;28;20029;-76
2023/06/27 09:12:34;;;;;;;3.15;1.30;;;;;;;;;;5043012;28;20191;-74
2023/06/27 09:15:00;;;;;;;1.92;1.08;;;;;;;;;;5036393;28;20083;-71
2023/06/27 09:17:25;;;;;;;2.15;1.15;;;;;;;;;;5033965;28;20071;-76
2023/06/27 09:19:51;;;;;;;2.88;1.13;;;;;;;;;;5031988;28;20080;-71
2023/06/27 09:22:18;;;;;;;2.50;1.40;;;;;;;;;;5036664;28;20046;-73
2023/06/27 09:24:44;;;;;;;1.73;1.13;;;;;;;;;;5053746;28;20033;-71
2023/06/27 09:27:31;;;;;;;2.45;1.10;;;;;;;;;;5053037;28;20033;-76
2023/06/27 09:30:02;;;;;;;2.42;1.42;;;;;;;;;;5050725;28;20449;-74
2023/06/27 09:32:27;;;;;;;1.85;1.17;;;;;;;;;;5053467;28;20049;-76
2023/06/27 09:34:53;;;;;;;3.10;1.23;;;;;;;;;;5057153;28;20484;-75
2023/06/27 09:37:29;;;;;;;2.65;1.05;;;;;;;;;;5051129;28;20092;-75
2023/06/27 09:39:55;;;;;;;2.88;1.13;;;;;;;;;;5052045;28;20025;-71
2023/06/27 09:42:20;;;;;;;1.83;1.10;;;;;;;;;;5060836;28;20120;-76
2023/06/27 09:44:45;;;;;;;4.07;1.20;;;;;;;;;;5051048;28;20354;-73
2023/06/27 09:47:11;;;;;;;4.63;1.33;;;;;;;;;;5053444;28;20084;-77
2023/06/27 09:49:41;;;;;;;2.33;1.02;;;;;;;;;;5050829;28;20079;-71
2023/06/27 09:52:07;;;;;;;;;;;;;;;;;;5048156;28;20033;-77
2023/06/27 09:54:34;;;;;;;3.70;1.42;;;;;;;;;;5049586;28;20007;-64
2023/06/27 09:56:59;;;;;;;1.60;1.10;;;;;;;;;;5048294;28;20120;-72
2023/06/27 09:59:26;;;;;;;2.90;1.05;;;;;;;;;;5047776;28;20108;-76
2023/06/27 10:01:53;;;;;;;1.75;1.10;;;;;;;;;;5047943;28;20033;-77
2023/06/27 10:04:19;;;;;;;2.55;1.25;;;;;;;;;;5047600;28;20044;-77
2023/06/27 10:06:45;;;;;;;2.33;1.08;;;;;;;;;;5047244;28;20025;-77
2023/06/27 10:09:11;;;;;;;4.93;1.50;;;;;;;;;;5048201;28;20029;-70
2023/06/27 10:11:37;;;;;;;2.30;1.20;;;;;;;;;;5048392;28;20032;-76
2023/06/27 10:14:04;;;;;;;1.73;1.15;;;;;;;;;;5049299;28;20029;-76
2023/06/27 10:16:30;;;;;;;1.65;1.02;;;;;;;;;;5048957;28;20485;-76
2023/06/27 10:18:56;;;;;;;3.28;1.20;;;;;;;;;;5049396;28;20033;-76
2023/06/27 10:21:24;;;;;;;1.70;1.05;;;;;;;;;;5049262;28;20454;-76
2023/06/27 10:23:52;;;;;;;1.77;0.95;;;;;;;;;;5048799;28;20116;-76
2023/06/27 10:26:19;;;;;;;2.72;1.10;;;;;;;;;;5049127;28;20087;-75
2023/06/27 10:28:51;;;;;;;2.10;1.15;;;;;;;;;;5049016;28;20060;-76
2023/06/27 10:31:39;;;;;;;2.95;1.00;;;;;;;;;;5049028;28;20070;-75
2023/06/27 10:34:07;;;;;;;3.08;1.00;;;;;;;;;;5048640;28;20090;-76
2023/06/27 10:36:54;;;;;;;2.25;1.60;;;;;;;;;;5048766;28;20396;-76
2023/06/27 10:39:32;;;;;;;2.58;1.08;;;;;;;;;;5048707;28;20029;-76
2023/06/27 10:42:27;;;;;;;3.80;1.30;;;;;;;;;;5048879;28;20037;-75
2023/06/27 10:45:09;;;;;;;2.25;1.05;;;;;;;;;;5048784;28;20029;-77
2023/06/27 10:47:41;;;;;;;3.83;1.40;;;;;;;;;;5048561;28;20021;-73
2023/06/27 10:50:12;;;;;;;3.95;1.27;;;;;;;;;;5048973;28;20108;-69
2023/06/27 10:52:40;;;;;;;2.08;1.05;;;;;;;;;;5048327;28;20024;-71
2023/06/27 10:55:14;;;;;;;2.67;1.20;;;;;;;;;;5048614;28;20025;-76
2023/06/27 10:57:43;;;;;;;1.83;1.25;;;;;;;;;;5048397;28;20025;-76
2023/06/27 11:00:24;;;;;;;1.90;1.30;;;;;;;;;;5048718;28;20120;-70
2023/06/27 11:02:52;;;;;;;2.65;1.30;;;;;;;;;;5048393;28;20400;-75
2023/06/27 11:05:18;;;;;;;1.92;1.10;;;;;;;;;;5048398;28;20029;-73
2023/06/27 11:07:58;;;;;;;3.03;1.23;;;;;;;;;;5047606;28;20018;-77
2023/06/27 11:10:26;;;;;;;2.72;1.23;;;;;;;;;;5048361;28;20029;-74
2023/06/27 11:13:12;;;;;;;2.80;1.25;;;;;;;;;;5048381;28;20040;-66
2023/06/27 11:15:38;;;;;;;2.65;1.08;;;;;;;;;;5048495;28;20100;-74
2023/06/27 11:18:05;;;;;;;1.55;0.85;;;;;;;;;;5048431;28;20124;-75
2023/06/27 11:20:31;;;;;;;1.88;1.10;;;;;;;;;;5049288;28;20095;-74
2023/06/27 11:23:01;;;;;;;4.75;1.15;;;;;;;;;;5048041;28;20061;-73
2023/06/27 11:25:27;;;;;;;2.08;1.42;;;;;;;;;;5049642;28;20025;-75
2023/06/27 11:27:56;;;;;;;2.83;1.27;;;;;;;;;;5048188;28;20157;-73
2023/06/27 11:30:25;;;;;;;2.33;1.20;;;;;;;;;;5048248;28;20036;-75
2023/06/27 11:32:54;;;;;;;3.53;1.00;;;;;;;;;;5050506;28;20108;-78
2023/06/27 11:35:21;;;;;;;2.90;1.20;;;;;;;;;;5048298;28;20029;-73
2023/06/27 11:37:47;;;;;;;1.63;1.00;;;;;;;;;;5049329;28;20100;-73
2023/06/27 11:40:16;;;;;;;2.40;1.00;;;;;;;;;;5049423;28;20572;-75
2023/06/27 11:42:42;;;;;;;2.20;1.13;;;;;;;;;;5052117;28;20040;-73
2023/06/27 11:45:11;;;;;;;3.25;1.17;;;;;;;;;;5047976;28;20025;-72
2023/06/27 11:47:37;;;;;;;1.75;1.00;;;;;;;;;;5048635;28;20056;-71
2023/06/27 11:50:06;;;;;;;2.45;1.23;;;;;;;;;;5050091;28;20250;-71
2023/06/27 11:52:34;;;;;;;3.20;1.15;;;;;;;;;;5038810;28;20036;-73
2023/06/27 11:55:01;;;;;;;2.67;1.20;;;;;;;;;;5048339;28;20055;-66
2023/06/27 11:57:53;;;;;;;1.65;1.10;;;;;;;;;;5031340;28;20083;-70
2023/06/27 12:00:24;;;;;;;6.53;3.30;;;;;;;;;;5042951;28;20048;-73
2023/06/27 12:02:54;;;;;;;2.28;1.30;;;;;;;;;;5053925;28;20029;-71
2023/06/27 12:05:21;;;;;;;2.20;1.23;;;;;;;;;;5048236;28;20037;-76
2023/06/27 12:08:20;;;;;;;2.42;0.98;;;;;;;;;;5048100;28;20021;-70
2023/06/27 12:10:51;;;;;;;3.15;1.00;;;;;;;;;;5048067;28;20032;-75
2023/06/27 12:13:16;;;;;;;1.98;1.05;;;;;;;;;;5049763;28;20041;-66
2023/06/27 12:15:46;;;;;;;2.92;1.27;;;;;;;;;;5047220;28;20029;-71
2023/06/27 12:18:22;;;;;;;1.35;1.00;;;;;;;;;;5051241;28;20119;-71
2023/06/27 12:20:49;;;;;;;1.38;0.90;;;;;;;;;;5057229;28;20457;-68
2023/06/27 12:23:14;;;;;;;2.08;1.10;;;;;;;;;;5054944;28;20029;-73
2023/06/27 12:25:40;;;;;;;1.23;0.80;;;;;;;;;;5055241;28;20044;-75
2023/06/27 12:28:06;;;;;;;2.63;1.38;;;;;;;;;;5056217;28;20025;-72
2023/06/27 12:30:32;;;;;;;6.38;1.20;;;;;;;;;;5055591;28;20017;-71
2023/06/27 12:32:57;;;;;;;2.90;1.45;;;;;;;;;;5051544;28;20056;-73
2023/06/27 12:35:23;;;;;;;3.78;0.95;;;;;;;;;;5053088;28;20492;-67
2023/06/27 12:37:49;;;;;;;1.20;0.90;;;;;;;;;;5038825;28;20034;-71
2023/06/27 12:40:20;;;;;;;3.35;1.10;;;;;;;;;;5047470;28;20056;-70
2023/06/27 12:42:45;;;;;;;3.15;1.60;;;;;;;;;;5031470;28;20060;-70
2023/06/27 12:45:11;;;;;;;2.65;1.10;;;;;;;;;;5039935;28;20025;-69
2023/06/27 12:47:41;;;;;;;3.65;1.15;;;;;;;;;;5050993;28;20028;-70
2023/06/27 12:50:11;;;;;;;1.58;1.00;;;;;;;;;;5051069;28;20112;-74
2023/06/27 12:52:36;;;;;;;1.95;1.20;;;;;;;;;;5050827;28;20523;-73
2023/06/27 12:55:03;;;;;;;3.25;0.98;;;;;;;;;;5030570;28;20029;-80
2023/06/27 12:57:28;;;;;;;1.92;1.05;;;;;;;;;;5031106;28;20029;-74
2023/06/27 12:59:54;;;;;;;2.88;1.10;;;;;;;;;;5032246;28;20486;-76
2023/06/27 13:02:19;;;;;;;1.70;0.88;;;;;;;;;;5030658;28;20022;-78
2023/06/27 13:04:44;;;;;;;1.98;1.20;;;;;;;;;;5031134;28;20393;-78
2023/06/27 13:07:10;;;;;;;2.75;1.10;;;;;;;;;;5030193;28;20013;-79
2023/06/27 13:09:37;;;;;;;2.17;0.93;;;;;;;;;;5041821;28;20059;-74
2023/06/27 13:12:03;;;;;;;1.77;0.88;;;;;;;;;;5040623;28;20111;-79
2023/06/27 13:14:29;;;;;;;3.63;1.05;;;;;;;;;;5030576;28;20036;-79
2023/06/27 13:16:54;;;;;;;2.10;1.20;;;;;;;;;;5045367;28;20029;-78
2023/06/27 13:19:21;;;;;;;4.45;1.30;;;;;;;;;;5052569;28;20021;-80
2023/06/27 13:21:46;;;;;;;3.25;1.67;;;;;;;;;;5055993;28;20051;-79
2023/06/27 13:24:12;;;;;;;2.35;1.40;;;;;;;;;;5054381;28;20565;-80
2023/06/27 13:26:38;;;;;;;3.97;0.93;;;;;;;;;;5034762;28;20033;-80
2023/06/27 13:29:06;;;;;;;2.42;1.35;;;;;;;;;;5031293;28;20029;-79
2023/06/27 13:31:31;;;;;;;1.30;0.90;;;;;;;;;;5032460;28;20033;-80
2023/06/27 13:33:57;;;;;;;2.30;1.08;;;;;;;;;;5030642;28;20025;-82
2023/06/27 13:36:42;;;;;;;5.05;1.17;;;;;;;;;;5035005;28;20027;-81
2023/06/27 13:39:08;;;;;;;1.40;0.90;;;;;;;;;;5036421;28;20025;-79
2023/06/27 13:41:33;;;;;;;2.35;1.17;;;;;;;;;;5030351;28;20057;-80
2023/06/27 13:43:59;;;;;;;1.42;1.00;;;;;;;;;;5030137;28;20075;-81
2023/06/27 13:46:24;;;;;;;2.80;1.20;;;;;;;;;;5030353;28;20048;-80
2023/06/27 13:48:50;;;;;;;1.58;0.93;;;;;;;;;;5035696;28;20325;-80
2023/06/27 13:51:16;;;;;;;2.35;0.98;;;;;;;;;;5037540;28;20026;-76
2023/06/27 13:53:42;;;;;;;1.15;0.90;;;;;;;;;;5029751;28;20021;-79
2023/06/27 13:56:07;;;;;;;1.70;1.00;;;;;;;;;;5031502;28;20024;-80
2023/06/27 13:58:32;;;;;;;2.17;1.17;;;;;;;;;;5031211;28;20029;-81
2023/06/27 14:01:01;;;;;;;1.75;0.93;;;;;;;;;;5030232;28;20021;-78
2023/06/27 14:03:27;;;;;;;1.50;0.98;;;;;;;;;;5030881;28;20025;-79
2023/06/27 14:05:52;;;;;;;3.40;0.95;;;;;;;;;;5038111;28;20125;-80
2023/06/27 14:08:19;;;;;;;2.45;1.02;;;;;;;;;;5029702;28;20436;-79
2023/06/27 14:10:45;;;;;;;1.65;1.00;;;;;;;;;;5029748;28;20033;-79
2023/06/27 14:13:10;;;;;;;1.52;1.00;;;;;;;;;;5031564;28;20037;-78
2023/06/27 14:15:36;;;;;;;2.83;1.00;;;;;;;;;;5030848;28;20317;-76
2023/06/27 14:18:02;;;;;;;2.05;1.10;;;;;;;;;;5035691;28;20029;-78
2023/06/27 14:20:27;;;;;;;2.28;0.88;;;;;;;;;;5029730;28;20029;-78
2023/06/27 14:22:59;;;;;;;1.23;0.77;;;;;;;;;;5033082;28;20572;-76
2023/06/27 14:25:31;;;;;;;2.00;1.00;;;;;;;;;;5029258;28;20049;-78
2023/06/27 14:27:57;;;;;;;1.42;0.90;;;;;;;;;;5030645;28;20620;-83
2023/06/27 14:30:22;;;;;;;2.17;1.15;;;;;;;;;;5029716;28;20035;-82
2023/06/27 14:32:49;;;;;;;1.00;0.70;;;;;;;;;;5033474;28;20041;-76
2023/06/27 14:35:15;;;;;;;1.10;0.90;;;;;;;;;;5034158;28;20060;-75
2023/06/27 14:37:40;;;;;;;4.15;1.00;;;;;;;;;;5038399;28;20237;-79
2023/06/27 14:40:09;;;;;;;2.92;1.42;;;;;;;;;;5053347;28;20021;-77
2023/06/27 14:42:35;;;;;;;1.73;1.10;;;;;;;;;;5080321;28;20071;-72
2023/06/27 14:45:00;;;;;;;2.08;1.00;;;;;;;;;;5070454;28;20032;-78